Flight Track Log - Related Links

Times and Time Zones

All times are in EDT time to prevent confusion due to time zone crossing. See the ASQ5365 flight status page for this flight to view local times or setup timezone preferences in your user account.

Time Position Orientation Groundspeed Altitude Reporting Facility
EDT Latitude Longitude Course Direction KTS MPH feet Rate Location/Type
05:29PM 42.2303 -83.3508 354° North 160 184 1,400  Level Cleveland Center
05:30PM 42.2739 -83.3569 354° North 216 249 2,500 1,342 Climbing Cleveland Center
05:31PM 42.2931 -83.3617 350° North 213 245 3,100 2,400 Climbing Cleveland Center
05:31PM 42.3331 -83.3767 345° North 238 274 4,900 2,516 Climbing Cleveland Center
05:32PM 42.3514 -83.4167 302° West 256 295 5,700 1,967 Climbing Cleveland Center
05:32PM 42.3511 -83.4667 270° West 279 321 6,900 2,323 Climbing Cleveland Center
05:33PM 42.3344 -83.5142 245° Southwest 283 326 8,100 2,323 Climbing Cleveland Center
05:34PM 42.2867 -83.5894 229° Southwest 289 333 10,500 1,728 Climbing Cleveland Center
05:35PM 42.2006 -83.6189 194° South 327 376 11,700 1,548 Climbing Cleveland Center
05:36PM 42.0858 -83.6569 194° South 354 407 13,700 1,839 Climbing Cleveland Center
05:37PM 41.9864 -83.6903 194° South 365 420 15,500 1,742 Climbing Cleveland Center
05:38PM 41.8853 -83.7233 194° South 374 430 17,300 1,597 Climbing Cleveland Center
05:39PM 41.7825 -83.7575 194° South 375 432 18,800 1,452 Climbing Cleveland Center
05:40PM 41.6778 -83.7969 196° South 387 445 20,300 1,597 Climbing Cleveland Center
05:41PM 41.6028 -83.9225 231° Southwest 370 426 22,100 1,597 Climbing Cleveland Center
05:42PM 41.5750 -84.0553 254° West 370 426 23,600 1,258 Climbing Cleveland Center
05:43PM 41.5444 -84.1875 253° West 370 426 24,700 968 Climbing Cleveland Center
05:44PM 41.5172 -84.3092 253° West 376 433 25,600 960 Climbing Cleveland Center
05:45PM 41.4794 -84.4769 253° West 391 450 26,700 864 Climbing Cleveland Center
05:46PM 41.4483 -84.6197 254° West 398 458 27,400 726 Climbing Cleveland Center
05:47PM 41.4147 -84.7653 253° West 406 467 28,200 871 Climbing Cleveland Center
05:48PM 41.3811 -84.9117 253° West 408 470 29,200 968 Climbing Cleveland Center
05:49PM 41.3469 -85.0572 253° West 409 471 30,200 968 Climbing Cleveland Center
05:50PM 41.3133 -85.2006 253° West 408 470 31,200 1,065 Climbing Cleveland Center
05:51PM 41.2750 -85.3711 253° West 404 465 32,400 1,065 Climbing Cleveland Center
05:52PM 41.2422 -85.5097 253° West 396 456 33,400 774 Climbing Cleveland Center
05:53PM 41.2106 -85.6456 253° West 387 445 34,000 290 Climbing Cleveland Center
05:55PM 41.1775 -85.7831 252° West 387 445 34,000  Level Cleveland Center
05:56PM 41.1444 -85.9239 253° West 396 456 34,000  Level Cleveland Center
05:57PM 41.1114 -86.0608 252° West 395 455 34,000  Level Cleveland Center
05:58PM 41.0783 -86.1983 252° West 394 453 34,000  Level Cleveland Center
05:59PM 41.0378 -86.3625 252° West 393 452 34,000  Level Cleveland Center
06:00PM 40.9908 -86.5531 252° West 392 451 34,000  Level Chicago Center
06:01PM 40.9572 -86.6906 252° West 391 450 34,000  Level Chicago Center
06:02PM 40.9247 -86.8206 252° West 392 451 34,000  Level Chicago Center
06:03PM 40.8897 -86.9603 252° West 397 457 34,000  Level Chicago Center
06:04PM 40.8542 -87.1022 252° West 402 463 34,000  Level Chicago Center
06:05PM 40.8117 -87.2725 252° West 404 465 34,000  Level Chicago Center
06:06PM 40.7747 -87.4172 251° West 409 471 34,000  Level Chicago Center
06:07PM 40.7325 -87.5567 248° West 409 471 34,000  Level Chicago Center
06:08PM 40.6606 -87.6772 232° Southwest 416 479 34,000  Level Chicago Center
06:09PM 40.5883 -87.7958 231° Southwest 416 479 34,000  Level Chicago Center
06:10PM 40.5156 -87.9136 231° Southwest 416 479 34,000  Level Chicago Center
06:11PM 40.4439 -88.0294 231° Southwest 413 475 34,000  Level Chicago Center
06:12PM 40.3575 -88.1681 231° Southwest 411 473 34,000  Level Chicago Center
06:13PM 40.2850 -88.2833 231° Southwest 411 473 34,000  Level Chicago Center
06:15PM 40.2139 -88.3994 231° Southwest 410 472 34,000  Level Chicago Center
06:16PM 40.1464 -88.5064 230° Southwest 409 471 34,000  Level Chicago Center
06:17PM 40.0733 -88.6203 230° Southwest 408 470 34,000  Level Chicago Center
06:18PM 39.9847 -88.7583 230° Southwest 409 471 34,000  Level Chicago Center
06:19PM 39.9125 -88.8736 231° Southwest 408 470 34,000 300 Level Chicago Center
06:20PM 39.8539 -88.9639 230° Southwest 410 472 34,600 756 Climbing Kansas City Center
06:21PM 39.7678 -89.0994 230° Southwest 408 470 35,500 683 Climbing Kansas City Center
06:22PM 39.6975 -89.2089 230° Southwest 399 459 36,000 244 Climbing Kansas City Center
06:23PM 39.6317 -89.3103 230° Southwest 397 457 36,000  Level Kansas City Center
06:24PM 39.5589 -89.4225 230° Southwest 401 461 36,000  Level Kansas City Center
06:25PM 39.4858 -89.5344 230° Southwest 406 467 36,000  Level Kansas City Center
06:26PM 39.3986 -89.6689 230° Southwest 406 467 36,000  Level Kansas City Center
06:27PM 39.3261 -89.7797 230° Southwest 406 467 36,000  Level Kansas City Center
06:28PM 39.2536 -89.8911 230° Southwest 406 467 36,000  Level Kansas City Center
06:29PM 39.1861 -89.9922 229° Southwest 406 467 36,000  Level Kansas City Center
06:30PM 39.1119 -90.1044 230° Southwest 407 468 36,000  Level Kansas City Center
06:31PM 39.0375 -90.2172 230° Southwest 410 472 36,000  Level Kansas City Center
06:32PM 38.9586 -90.3350 229° Southwest 410 472 36,000  Level Kansas City Center
06:33PM 38.8789 -90.4561 230° Southwest 409 471 36,000  Level Kansas City Center
06:34PM 38.8128 -90.5767 235° Southwest 411 473 36,000  Level Kansas City Center
06:35PM 38.7456 -90.7100 237° Southwest 416 479 36,000 49 Level Kansas City Center
06:36PM 38.6833 -90.8311 237° Southwest 410 472 36,100 537 Climbing Kansas City Center
06:37PM 38.6222 -90.9514 237° Southwest 407 468 37,100 934 Climbing Kansas City Center
06:38PM 38.5636 -91.0661 237° Southwest 392 451 38,000 439 Climbing Kansas City Center
06:39PM 38.5056 -91.1789 237° Southwest 385 443 38,000  Level Kansas City Center
06:40PM 38.4597 -91.3072 246° West 397 457 38,000  Level Kansas City Center
06:41PM 38.4300 -91.4653 257° West 408 470 38,000  Level Kansas City Center
06:42PM 38.4053 -91.6089 258° West 410 472 38,000  Level Kansas City Center
06:43PM 38.3772 -91.7478 256° West 409 471 38,000  Level Kansas City Center
06:44PM 38.3442 -91.8850 253° West 406 467 38,000  Level Kansas City Center
06:45PM 38.2914 -92.0061 241° Southwest 390 449 38,000  Level Kansas City Center
06:46PM 38.2219 -92.1461 238° Southwest 390 449 38,000  Level Kansas City Center
06:47PM 38.1728 -92.2478 238° Southwest 390 449 38,000  Level Kansas City Center
06:48PM 38.1131 -92.3617 236° Southwest 390 449 38,000  Level Kansas City Center
06:49PM 38.0586 -92.4803 240° Southwest 391 450 38,000  Level Kansas City Center
06:50PM 37.9856 -92.6189 236° Southwest 395 455 38,000  Level Kansas City Center
06:51PM 37.9081 -92.7086 222° Southwest 385 443 38,000  Level Kansas City Center
06:52PM 37.8172 -92.7975 218° Southwest 383 441 38,000  Level Kansas City Center
06:53PM 37.7342 -92.8814 219° Southwest 382 440 38,000  Level Kansas City Center
06:54PM 37.6489 -92.9650 218° Southwest 383 441 38,000  Level Kansas City Center
06:55PM 37.5644 -93.0489 218° Southwest 383 441 38,000  Level Kansas City Center
06:56PM 37.4808 -93.1325 218° Southwest 384 442 38,000 -98 Level Kansas City Center
06:57PM 37.3961 -93.2172 218° Southwest 385 443 37,800 -492 Descending Kansas City Center
06:58PM 37.3092 -93.3053 219° Southwest 392 451 37,000 -927 Descending Kansas City Center
06:59PM 37.2183 -93.3961 219° Southwest 404 465 35,900 -976 Descending Kansas City Center
07:01PM 37.1256 -93.4867 218° Southwest 415 478 35,000 -443 Descending Kansas City Center
07:02PM 37.0367 -93.5733 218° Southwest 410 472 35,000 -341 Level Kansas City Center
07:03PM 36.9564 -93.6697 224° Southwest 401 461 34,300 -829 Descending Kansas City Center
07:04PM 36.8683 -93.7867 227° Southwest 401 461 33,300 -934 Descending Kansas City Center
07:05PM 36.7928 -93.8844 226° Southwest 398 458 32,400 -878 Descending Kansas City Center
07:06PM 36.7214 -93.9858 229° Southwest 395 455 31,500 -907 Descending Kansas City Center
07:06PM 36.6919 -94.0264 228° Southwest 394 453 31,100 -907 Descending Kansas City Center
07:07PM 36.6197 -94.1325 230° Southwest 395 455 30,200 -816 Descending Kansas City Center
07:08PM 36.5767 -94.1983 231° Southwest 400 460 29,700 -647 Descending Memphis Center
07:09PM 36.5025 -94.3314 235° Southwest 399 459 29,100 -585 Descending Memphis Center
07:10PM 36.4439 -94.4422 237° Southwest 390 449 28,500 -532 Descending Memphis Center
07:11PM 36.3864 -94.5536 237° Southwest 387 445 28,000 -488 Descending Memphis Center
07:12PM 36.3314 -94.6686 239° Southwest 387 445 27,500 -537 Descending Memphis Center
07:13PM 36.2828 -94.7881 243° Southwest 387 445 26,900 -1,463 Descending Memphis Center
07:14PM 36.2500 -94.9158 252° West 397 457 24,500 -3,024 Descending Memphis Center
07:15PM 36.2408 -95.0506 265° West 395 455 20,700 -3,845 Descending Memphis Center
07:16PM 36.2314 -95.2306 266° West 384 442 15,400 -3,549 Descending Kansas City Center
07:17PM 36.1775 -95.3281 236° Southwest 346 398 12,300 -2,016 Descending Kansas City Center
07:18PM 36.2067 -95.4425 288° West 298 343 11,200 -1,672 Descending Kansas City Center
07:19PM 36.2233 -95.5197 285° West 266 306 8,900 -2,231 Descending Kansas City Center
07:20PM 36.2425 -95.6072 285° West 259 298 6,700 -1,951 Descending Kansas City Center
07:21PM 36.2622 -95.6958 285° West 262 302 4,900 -1,268 Descending Kansas City Center
07:22PM 36.2794 -95.7711 286° West 241 277 4,100 -1,073 Descending Kansas City Center
07:23PM 36.2886 -95.8397 279° West 215 247 2,700 -1,033 Descending Kansas City Center
07:24PM 36.2744 -95.8922 252° West 181 208 2,000 -683 Descending Kansas City Center
07:25PM 36.2372 -95.8975 187° South 150 173 1,300 -634 Descending Kansas City Center
07:26PM 36.2017 -95.8994 183° South 137 158 700 -590 Descending Kansas City Center
07:29PM 36.1984 -95.8881 39° Northeast  Level Estimated

Login

Don't have an account? Register now (free) for customized features, flight alerts, and more!